Latest Weather Observations for Orbost

IDV60801

Issued at 2:02 pm EDT Saturday 6 February 2016 (issued every 30 minutes, with the page automatically refreshed every 10 minutes)

About weather observations | Map of weather stations | Latest weather observations for VIC | Other Formats
Station Details ID: 084145 Name: ORBOST Lat: -37.69 Lon: 148.47 Height: 62.65 m
Data from the previous 72 hours. | See also: Recent months at Orbost
Date/Time
EDT
Temp
°C
App
Temp
°C
Dew
Point
Rel
Hum
%
Delta-T
°C
Wind Press
QNH
hPa
Press
MSL
hPa
Rain
since 9 am
mm
Dir
 
Spd
km/h
Gust
km/h
Spd
kts
Gust
kts
06/02:00pm 26.3 26.4 16.5 54 6.1 ESE 11 22 6 12 1016.6 1016.4 0.0
06/01:30pm 25.8 25.9 16.4 56 5.8 ESE 11 20 6 11 1016.8 1016.6 0.0
06/01:00pm 26.0 26.3 16.0 54 6.1 SE 9 19 5 10 1017.1 1016.9 0.0
06/12:30pm 25.6 26.4 15.9 55 5.9 E 6 17 3 9 1017.6 1017.4 0.0
06/12:00pm 25.2 26.4 14.9 52 6.2 NNE 2 7 1 4 1018.1 1017.9 0.0
06/11:30am 24.6 24.6 15.2 55 5.7 E 9 19 5 10 1018.3 1018.1 0.0
06/11:00am 23.3 23.3 14.3 57 5.3 ENE 7 15 4 8 1018.7 1018.5 0.0
06/10:30am 23.3 23.0 14.3 57 5.3 E 9 13 5 7 1018.9 1018.7 0.0
06/10:00am 22.7 22.7 14.3 59 4.9 E 7 13 4 7 1019.3 1019.1 0.0
06/09:30am 22.0 22.2 14.6 63 4.4 E 7 11 4 6 1019.5 1019.3 0.0
06/09:00am 21.1 21.4 14.5 66 3.9 ESE 6 7 3 4 1019.7 1019.5 0.0
06/08:30am 19.5 19.9 14.7 74 2.8 E 6 9 3 5 1019.8 1019.6 0.0
06/08:00am 17.0 17.3 14.5 85 1.4 NE 6 9 3 5 1019.7 1019.5 0.0
06/07:30am 14.6 15.7 13.6 94 0.6 CALM 0 6 0 3 1019.4 1019.2 0.0
06/07:00am 12.5 13.1 11.9 96 0.3 CALM 0 2 0 1 1019.3 1019.1 0.0
06/06:30am 12.8 13.5 12.3 97 0.3 CALM 0 6 0 3 1019.3 1019.1 0.0
06/06:00am 12.5 13.1 11.9 96 0.3 CALM 0 2 0 1 1019.2 1019.0 0.0
06/05:30am 12.6 13.2 11.8 95 0.4 CALM 0 2 0 1 1019.1 1018.9 0.0
06/05:00am 13.5 13.2 12.7 95 0.4 NNE 6 7 3 4 1019.1 1018.9 0.0
06/04:30am 13.5 13.6 12.7 95 0.4 E 4 6 2 3 1019.1 1018.9 0.0
06/04:00am 13.8 13.9 12.7 93 0.6 E 4 6 2 3 1019.1 1018.9 0.0
06/03:30am 14.7 14.6 13.2 91 0.8 NE 6 7 3 4 1019.2 1019.0 0.0
06/03:00am 14.3 14.5 13.2 93 0.6 ENE 4 6 2 3 1019.5 1019.3 0.0
06/02:30am 14.4 15.4 13.1 92 0.7 CALM 0 0 0 0 1020.0 1019.8 0.0
06/02:00am 14.4 15.3 13.0 91 0.8 CALM 0 0 0 0 1020.3 1020.1 0.0
06/01:30am 14.7 15.5 12.4 86 1.3 CALM 0 2 0 1 1020.6 1020.4 0.0
06/01:00am 16.0 16.2 13.1 83 1.6 E 4 7 2 4 1020.7 1020.5 0.0
06/12:30am 16.5 16.3 13.0 80 2.0 ESE 6 9 3 5 1020.8 1020.6 0.0
06/12:00am 16.6 16.4 13.1 80 2.0 ESE 6 9 3 5 1020.9 1020.7 0.0
 
Date/Time
EDT
Temp
°C
App
Temp
°C
Dew
Point
Rel
Hum
%
Delta-T
°C
Wind Press
QNH
hPa
Press
MSL
hPa
Rain
since 9 am
mm
Dir
 
Spd
km/h
Gust
km/h
Spd
kts
Gust
kts
05/11:30pm 16.7 16.5 13.0 79 2.1 ESE 6 9 3 5 1021.1 1020.9 0.0
05/11:00pm 17.2 16.8 13.1 77 2.3 ESE 7 13 4 7 1021.3 1021.1 0.0
05/10:30pm 17.5 17.2 13.2 76 2.4 ESE 7 17 4 9 1021.4 1021.2 0.0
05/10:00pm 17.6 17.3 13.3 76 2.4 ESE 7 15 4 8 1021.5 1021.3 0.0
05/09:30pm 17.4 17.4 13.5 78 2.2 ESE 6 15 3 8 1021.4 1021.2 0.0
05/09:00pm 17.8 17.5 13.3 75 2.5 ESE 7 13 4 7 1021.2 1021.0 0.0
05/08:30pm 18.4 18.3 13.3 72 2.9 ESE 6 11 3 6 1020.8 1020.6 0.0
05/08:00pm 19.2 18.5 13.2 68 3.4 ESE 9 19 5 10 1020.6 1020.4 0.0
05/07:30pm 20.0 18.5 13.0 64 4.0 ESE 13 24 7 13 1020.4 1020.2 0.0
05/07:00pm 20.6 19.6 13.3 63 4.2 ESE 11 24 6 13 1020.2 1020.0 0.0
05/06:30pm 21.0 19.3 13.7 63 4.2 ESE 15 24 8 13 1020.0 1019.8 0.0
05/06:00pm 21.4 19.9 14.1 63 4.2 ESE 15 24 8 13 1020.0 1019.8 0.0
05/05:30pm 21.5 20.8 14.4 64 4.2 ESE 11 19 6 10 1020.4 1020.2 0.0
05/05:00pm 21.2 19.8 14.4 65 4.0 ESE 15 22 8 12 1020.7 1020.5 0.0
05/04:30pm 20.9 19.7 14.1 65 4.0 ESE 13 19 7 10 1020.8 1020.6 0.0
05/04:00pm 20.3 19.6 14.2 68 3.5 E 11 20 6 11 1021.2 1021.0 0.0
05/03:30pm 20.4 19.5 13.6 65 3.9 ESE 11 22 6 12 1021.2 1021.0 0.0
05/03:00pm 20.6 19.8 14.0 66 3.8 ESE 11 19 6 10 1021.4 1021.2 0.0
05/02:30pm 21.1 21.0 13.8 63 4.2 SE 7 13 4 7 1021.6 1021.4 0.0
05/02:00pm 19.8 18.8 13.5 67 3.6 ESE 11 20 6 11 1021.9 1021.8 0.0
05/01:30pm 21.2 20.8 12.9 59 4.7 SE 7 13 4 7 1022.1 1022.0 0.0
05/01:00pm 20.6 19.6 13.3 63 4.2 E 11 19 6 10 1022.3 1022.2 0.0
05/12:30pm 20.7 20.2 13.9 65 3.9 SE 9 22 5 12 1022.5 1022.4 0.0
05/12:00pm 20.7 20.3 12.9 61 4.4 SE 7 13 4 7 1022.6 1022.5 0.0
05/11:30am 20.9 20.6 12.6 59 4.7 E 6 15 3 8 1022.7 1022.6 0.0
05/11:00am 20.5 20.1 12.5 60 4.5 SE 6 9 3 5 1022.7 1022.6 0.0
05/10:30am 20.7 19.8 11.3 55 5.2 ESE 7 13 4 7 1022.7 1022.6 0.0
05/10:00am 20.5 19.6 12.7 61 4.4 E 9 15 5 8 1022.7 1022.6 0.0
05/09:30am 19.7 19.6 13.4 67 3.6 SSE 6 9 3 5 1022.5 1022.4 0.0
05/09:00am 18.0 19.3 14.1 78 2.2 CALM 0 4 0 2 1022.5 1022.4 0.0
05/08:30am 16.4 17.5 13.5 83 1.6 CALM 0 0 0 0 1022.2 1022.1 0.0
05/08:00am 16.0 17.0 14.4 90 0.9 SSW 2 2 1 1 1022.1 1022.0 0.0
05/07:30am 15.3 16.5 13.7 90 0.9 CALM 0 0 0 0 1021.8 1021.7 0.0
05/07:00am 15.1 16.4 14.0 93 0.6 CALM 0 0 0 0 1021.5 1021.3 0.0
05/06:30am 14.5 15.6 13.4 93 0.6 CALM 0 0 0 0 1021.2 1021.0 0.0
05/06:00am 14.9 16.1 13.8 93 0.6 CALM 0 0 0 0 1020.9 1020.7 0.0
05/05:30am 15.2 16.4 13.9 92 0.7 CALM 0 0 0 0 1020.6 1020.4 0.0
05/05:00am 15.2 16.4 13.9 92 0.7 CALM 0 2 0 1 1020.3 1020.1 0.0
05/04:30am 14.7 15.7 13.2 91 0.8 CALM 0 0 0 0 1020.0 1019.8 0.0
05/04:00am 14.9 16.0 13.4 91 0.8 CALM 0 0 0 0 1020.1 1019.9 0.0
05/03:30am 14.6 15.2 13.1 91 0.8 NE 2 2 1 1 1020.2 1020.0 0.0
05/03:00am 14.6 15.5 13.0 90 0.9 CALM 0 0 0 0 1020.3 1020.1 0.0
05/02:30am 14.9 15.9 13.3 90 0.9 CALM 0 0 0 0 1020.4 1020.2 0.0
05/02:00am 15.2 16.4 13.7 91 0.8 CALM 0 0 0 0 1020.6 1020.4 0.0
05/01:30am 15.3 16.5 13.8 91 0.8 CALM 0 0 0 0 1020.6 1020.4 0.0
05/01:00am 14.8 15.8 13.2 90 0.9 CALM 0 0 0 0 1020.8 1020.6 0.0
05/12:30am 14.8 15.7 13.0 89 1.0 CALM 0 0 0 0 1020.8 1020.6 0.0
05/12:00am 15.2 16.2 13.1 87 1.2 CALM 0 0 0 0 1020.8 1020.6 0.0
 
Date/Time
EDT
Temp
°C
App
Temp
°C
Dew
Point
Rel
Hum
%
Delta-T
°C
Wind Press
QNH
hPa
Press
MSL
hPa
Rain
since 9 am
mm
Dir
 
Spd
km/h
Gust
km/h
Spd
kts
Gust
kts
04/11:30pm 15.8 16.7 12.9 83 1.6 CALM 0 0 0 0 1020.9 1020.7 0.0
04/11:00pm 16.4 16.7 13.5 83 1.6 E 4 4 2 2 1020.9 1020.7 0.0
04/10:30pm 15.8 16.0 13.1 84 1.5 ENE 4 6 2 3 1021.0 1020.8 0.0
04/10:00pm 16.1 16.3 13.0 82 1.7 ENE 4 6 2 3 1020.9 1020.7 0.0
04/09:30pm 16.8 17.0 12.9 78 2.2 ENE 4 4 2 2 1020.8 1020.6 0.0
04/09:00pm 17.5 17.6 12.8 74 2.6 E 4 7 2 4 1020.5 1020.3 0.0
04/08:30pm 18.3 18.1 13.0 71 3.0 ESE 6 11 3 6 1020.3 1020.1 0.0
04/08:00pm 19.0 18.7 12.7 67 3.5 ESE 6 9 3 5 1020.0 1019.8 0.0
04/07:30pm 19.9 19.5 13.1 65 3.9 ESE 7 15 4 8 1019.4 1019.2 0.0
04/07:00pm 20.4 19.8 13.4 64 4.0 SE 9 17 5 9 1019.2 1019.0 0.0
04/06:30pm 20.6 19.6 13.3 63 4.2 SE 11 20 6 11 1018.8 1018.6 0.0
04/06:00pm 21.3 20.6 14.2 64 4.1 ESE 11 20 6 11 1018.5 1018.3 0.0
04/05:30pm 21.1 20.5 14.5 66 3.9 SE 11 22 6 12 1018.6 1018.4 0.0
04/05:00pm 21.2 20.2 14.6 66 3.9 SSE 13 20 7 11 1018.8 1018.6 0.0
04/04:30pm 21.6 20.8 15.2 67 3.8 SSE 13 20 7 11 1018.7 1018.5 0.0
04/04:00pm 21.3 20.4 14.9 67 3.8 SSE 13 20 7 11 1018.8 1018.6 0.0
04/03:30pm 21.4 20.6 15.0 67 3.8 S 13 22 7 12 1018.8 1018.6 0.0
04/03:00pm 21.9 21.6 15.5 67 3.8 S 11 17 6 9 1018.7 1018.5 0.0
04/02:30pm 20.9 20.8 15.0 69 3.5 S 9 19 5 10 1018.7 1018.5 0.0
04/02:00pm 21.6 22.0 15.2 67 3.8 S 7 13 4 7 1018.8 1018.6 0.0
04/01:30pm 20.9 21.5 15.4 71 3.3 S 6 9 3 5 1018.9 1018.7 0.0
04/01:00pm 20.0 20.2 14.1 69 3.4 W 6 9 3 5 1019.0 1018.8 0.0
04/12:30pm 20.1 21.2 14.5 70 3.3 S 2 7 1 4 1019.1 1018.9 0.0
04/12:00pm 19.5 19.7 14.3 72 3.0 SW 6 7 3 4 1019.0 1018.8 0.0
04/11:30am 18.4 18.4 14.1 76 2.5 W 7 11 4 6 1019.1 1018.9 0.0
04/11:00am 18.0 17.7 14.3 79 2.1 NNW 9 15 5 8 1018.9 1018.7 0.0
04/10:30am 17.1 16.1 13.4 79 2.1 WNW 11 17 6 9 1019.0 1018.8 0.0
04/10:00am 16.7 15.7 13.4 81 1.9 WNW 11 17 6 9 1018.8 1018.6 0.0
04/09:30am 16.5 15.8 14.2 86 1.3 NNW 11 17 6 9 1018.6 1018.4 0.0
04/09:00am 15.1 14.1 13.3 89 1.0 NNW 11 15 6 8 1018.7 1018.5 5.0
04/08:30am 14.6 13.9 13.1 91 0.8 N 9 13 5 7 1018.5 1018.3 5.0
04/08:00am 14.3 13.1 12.9 91 0.8 NNW 11 15 6 8 1018.0 1017.8 5.0
04/07:30am 14.1 13.7 13.1 94 0.6 N 7 11 4 6 1017.6 1017.4 5.0
04/07:00am 13.9 13.4 12.8 93 0.6 N 7 11 4 6 1017.4 1017.2 5.0
04/06:30am 14.5 13.9 12.2 86 1.3 WNW 7 13 4 7 1017.0 1016.8 4.0
04/06:00am 14.9 13.7 11.7 81 1.7 NW 9 11 5 6 1016.4 1016.2 3.8
04/05:30am 15.3 14.5 11.7 79 1.9 NNW 7 9 4 5 1016.0 1015.8 3.8
04/05:00am 15.2 14.4 11.6 79 1.9 NNW 7 13 4 7 1015.5 1015.3 3.8
04/04:30am 15.1 13.5 11.5 79 1.9 NW 11 19 6 10 1014.9 1014.7 3.8
04/04:00am 15.0 13.7 11.4 79 1.9 NW 9 13 5 7 1015.2 1015.0 3.8
04/03:30am 15.0 13.7 11.4 79 1.9 NW 9 15 5 8 1015.1 1014.9 3.8
04/03:00am 14.8 13.1 11.2 79 1.9 NW 11 19 6 10 1014.9 1014.7 3.8
04/02:30am 14.8 13.2 11.4 80 1.8 NW 11 17 6 9 1015.0 1014.8 3.8
04/02:00am 14.9 14.1 11.7 81 1.7 NW 7 13 4 7 1015.2 1015.0 3.8
04/01:30am 14.7 14.1 12.2 85 1.4 NW 7 11 4 6 1015.2 1015.0 3.8
04/01:00am 14.4 13.7 11.9 85 1.3 NNW 7 9 4 5 1015.1 1014.9 3.8
04/12:30am 14.8 14.1 12.1 84 1.5 NW 7 13 4 7 1015.0 1014.8 3.8
04/12:00am 14.9 14.5 12.4 85 1.4 NW 6 9 3 5 1014.8 1014.6 3.8
 
Date/Time
EDT
Temp
°C
App
Temp
°C
Dew
Point
Rel
Hum
%
Delta-T
°C
Wind Press
QNH
hPa
Press
MSL
hPa
Rain
since 9 am
mm
Dir
 
Spd
km/h
Gust
km/h
Spd
kts
Gust
kts
03/11:30pm 15.9 15.3 12.3 79 2.0 W 7 15 4 8 1014.7 1014.5 3.8
03/11:00pm 16.4 15.5 12.6 78 2.1 WSW 9 15 5 8 1014.5 1014.3 3.8
03/10:30pm 16.8 16.0 12.9 78 2.2 WSW 9 17 5 9 1014.4 1014.2 3.8
03/10:00pm 16.7 16.4 12.8 78 2.2 WSW 6 13 3 7 1014.1 1013.9 3.8
03/09:30pm 17.2 17.1 13.3 78 2.2 SW 6 13 3 7 1013.6 1013.4 3.8
03/09:00pm 17.2 17.7 13.9 81 1.9 SW 4 7 2 4 1013.1 1012.9 3.8
03/08:30pm 17.6 17.1 13.9 79 2.1 SW 9 17 5 9 1012.7 1012.5 3.8
03/08:00pm 17.9 17.8 15.0 83 1.7 WSW 9 15 5 8 1012.1 1011.9 3.8
03/07:30pm 17.9 17.2 15.3 85 1.5 SW 13 20 7 11 1011.5 1011.3 3.8
03/07:00pm 18.1 17.7 16.3 89 1.1 SW 13 20 7 11 1010.9 1010.7 3.8
03/06:30pm 17.5 18.4 16.5 94 0.6 W 7 17 4 9 1010.3 1010.1 3.8
03/06:00pm 17.2 16.4 16.2 94 0.6 SW 15 26 8 14 1009.7 1009.5 3.8
03/05:30pm 18.6 19.8 17.4 93 0.7 WSW 7 11 4 6 1009.1 1008.9 3.2
03/05:00pm 18.7 20.0 17.5 93 0.7 WSW 7 11 4 6 1008.7 1008.5 3.2
03/04:30pm 18.3 20.1 17.3 94 0.6 WNW 4 6 2 3 1008.6 1008.4 3.0
03/04:00pm 18.2 19.6 17.4 95 0.5 W 6 7 3 4 1008.4 1008.2 2.8
03/03:30pm 18.1 19.5 17.3 95 0.5 W 6 11 3 6 1008.4 1008.2 2.8
03/03:00pm 17.9 18.7 17.3 96 0.4 WSW 9 19 5 10 1008.3 1008.1 2.6
03/02:30pm 18.0 19.7 17.2 95 0.5 NW 4 6 2 3 1008.1 1007.8 2.2

Other Formats:

Comma delimited format used in spreadsheet applications
http://www.bom.gov.au/fwo/IDV60801/IDV60801.95918.axf

JavaScript Object Notation format (JSON) in row-major order
http://www.bom.gov.au/fwo/IDV60801/IDV60801.95918.json